sensor_id;sensor_type;location;lat;lon;timestamp;temperature;humidity
46438;DHT22;32137;48.728;9.142;2023-07-30T00:00:28;18.30;99.90
46438;DHT22;32137;48.728;9.142;2023-07-30T00:02:54;18.40;99.90
46438;DHT22;32137;48.728;9.142;2023-07-30T00:05:19;18.00;99.90
46438;DHT22;32137;48.728;9.142;2023-07-30T00:07:45;17.90;99.90
46438;DHT22;32137;48.728;9.142;2023-07-30T00:10:10;17.90;99.90
46438;DHT22;32137;48.728;9.142;2023-07-30T00:12:36;18.20;99.90
46438;DHT22;32137;48.728;9.142;2023-07-30T00:15:02;18.30;99.90
46438;DHT22;32137;48.728;9.142;2023-07-30T00:17:27;18.10;99.90
46438;DHT22;32137;48.728;9.142;2023-07-30T00:19:52;18.10;99.90
46438;DHT22;32137;48.728;9.142;2023-07-30T00:22:18;18.20;99.90
46438;DHT22;32137;48.728;9.142;2023-07-30T00:24:44;17.90;99.90
46438;DHT22;32137;48.728;9.142;2023-07-30T00:27:09;17.90;99.90
46438;DHT22;32137;48.728;9.142;2023-07-30T00:29:34;18.10;99.90
46438;DHT22;32137;48.728;9.142;2023-07-30T00:32:00;17.90;99.90
46438;DHT22;32137;48.728;9.142;2023-07-30T00:34:25;18.00;99.90
46438;DHT22;32137;48.728;9.142;2023-07-30T00:36:51;18.10;99.90
46438;DHT22;32137;48.728;9.142;2023-07-30T00:39:16;18.20;99.90
46438;DHT22;32137;48.728;9.142;2023-07-30T00:41:42;18.00;99.90
46438;DHT22;32137;48.728;9.142;2023-07-30T00:44:07;18.10;99.90
46438;DHT22;32137;48.728;9.142;2023-07-30T00:46:33;17.80;99.90
46438;DHT22;32137;48.728;9.142;2023-07-30T00:48:58;17.90;99.90
46438;DHT22;32137;48.728;9.142;2023-07-30T00:51:24;18.20;99.90
46438;DHT22;32137;48.728;9.142;2023-07-30T00:53:50;18.10;99.90
46438;DHT22;32137;48.728;9.142;2023-07-30T00:56:16;18.00;99.90
46438;DHT22;32137;48.728;9.142;2023-07-30T00:58:42;17.70;99.90
46438;DHT22;32137;48.728;9.142;2023-07-30T01:01:08;18.10;99.90
46438;DHT22;32137;48.728;9.142;2023-07-30T01:03:34;17.90;99.90
46438;DHT22;32137;48.728;9.142;2023-07-30T01:06:00;18.00;99.90
46438;DHT22;32137;48.728;9.142;2023-07-30T01:08:25;18.00;99.90
46438;DHT22;32137;48.728;9.142;2023-07-30T01:10:51;17.80;99.90
46438;DHT22;32137;48.728;9.142;2023-07-30T01:13:17;18.10;99.90
46438;DHT22;32137;48.728;9.142;2023-07-30T01:15:43;18.20;99.90
46438;DHT22;32137;48.728;9.142;2023-07-30T01:18:09;17.90;99.90
46438;DHT22;32137;48.728;9.142;2023-07-30T01:20:34;18.00;99.90
46438;DHT22;32137;48.728;9.142;2023-07-30T01:23:00;17.90;99.90
46438;DHT22;32137;48.728;9.142;2023-07-30T01:25:27;18.10;99.90
46438;DHT22;32137;48.728;9.142;2023-07-30T01:27:54;17.90;99.90
46438;DHT22;32137;48.728;9.142;2023-07-30T01:30:27;17.90;99.90
46438;DHT22;32137;48.728;9.142;2023-07-30T01:32:53;17.80;99.90
46438;DHT22;32137;48.728;9.142;2023-07-30T01:35:20;18.00;99.90
46438;DHT22;32137;48.728;9.142;2023-07-30T01:37:47;18.00;99.90
46438;DHT22;32137;48.728;9.142;2023-07-30T01:40:12;17.60;99.90
46438;DHT22;32137;48.728;9.142;2023-07-30T01:42:38;17.70;99.90
46438;DHT22;32137;48.728;9.142;2023-07-30T01:45:04;18.00;99.90
46438;DHT22;32137;48.728;9.142;2023-07-30T01:47:30;18.00;99.90
46438;DHT22;32137;48.728;9.142;2023-07-30T01:49:55;18.00;99.90
46438;DHT22;32137;48.728;9.142;2023-07-30T01:52:21;17.90;99.90
46438;DHT22;32137;48.728;9.142;2023-07-30T01:54:46;17.60;99.90
46438;DHT22;32137;48.728;9.142;2023-07-30T01:57:12;17.60;99.90
46438;DHT22;32137;48.728;9.142;2023-07-30T01:59:38;17.60;99.90
46438;DHT22;32137;48.728;9.142;2023-07-30T02:02:04;17.50;99.90
46438;DHT22;32137;48.728;9.142;2023-07-30T02:04:29;17.80;99.90
46438;DHT22;32137;48.728;9.142;2023-07-30T02:06:55;17.70;99.90
46438;DHT22;32137;48.728;9.142;2023-07-30T02:09:20;17.50;99.90
46438;DHT22;32137;48.728;9.142;2023-07-30T02:11:46;17.70;99.90
46438;DHT22;32137;48.728;9.142;2023-07-30T02:14:12;17.80;99.90
46438;DHT22;32137;48.728;9.142;2023-07-30T02:16:37;17.40;99.90
46438;DHT22;32137;48.728;9.142;2023-07-30T02:19:03;17.50;99.90
46438;DHT22;32137;48.728;9.142;2023-07-30T02:21:28;17.40;99.90
46438;DHT22;32137;48.728;9.142;2023-07-30T02:23:58;17.50;99.90
46438;DHT22;32137;48.728;9.142;2023-07-30T02:26:23;17.40;99.90
46438;DHT22;32137;48.728;9.142;2023-07-30T02:28:49;17.60;99.90
46438;DHT22;32137;48.728;9.142;2023-07-30T02:31:14;17.40;99.90
46438;DHT22;32137;48.728;9.142;2023-07-30T02:33:40;17.30;99.90
46438;DHT22;32137;48.728;9.142;2023-07-30T02:36:05;17.50;99.90
46438;DHT22;32137;48.728;9.142;2023-07-30T02:38:31;17.60;99.90
46438;DHT22;32137;48.728;9.142;2023-07-30T02:40:56;17.30;99.90
46438;DHT22;32137;48.728;9.142;2023-07-30T02:43:22;17.40;99.90
46438;DHT22;32137;48.728;9.142;2023-07-30T02:45:48;17.60;99.90
46438;DHT22;32137;48.728;9.142;2023-07-30T02:48:13;17.70;99.90
46438;DHT22;32137;48.728;9.142;2023-07-30T02:50:39;17.40;99.90
46438;DHT22;32137;48.728;9.142;2023-07-30T02:53:04;17.40;99.90
46438;DHT22;32137;48.728;9.142;2023-07-30T02:55:29;17.50;99.90
46438;DHT22;32137;48.728;9.142;2023-07-30T02:57:55;17.50;99.90
46438;DHT22;32137;48.728;9.142;2023-07-30T03:00:20;17.40;99.90
46438;DHT22;32137;48.728;9.142;2023-07-30T03:02:46;17.20;99.90
46438;DHT22;32137;48.728;9.142;2023-07-30T03:05:11;17.20;99.90
46438;DHT22;32137;48.728;9.142;2023-07-30T03:07:37;17.40;99.90
46438;DHT22;32137;48.728;9.142;2023-07-30T03:10:03;17.20;99.90
46438;DHT22;32137;48.728;9.142;2023-07-30T03:12:28;17.10;99.90
46438;DHT22;32137;48.728;9.142;2023-07-30T03:14:54;17.10;99.90
46438;DHT22;32137;48.728;9.142;2023-07-30T03:17:19;17.20;99.90
46438;DHT22;32137;48.728;9.142;2023-07-30T03:19:46;17.30;99.90
46438;DHT22;32137;48.728;9.142;2023-07-30T03:22:11;17.00;99.90
46438;DHT22;32137;48.728;9.142;2023-07-30T03:24:36;17.30;99.90
46438;DHT22;32137;48.728;9.142;2023-07-30T03:27:02;17.00;99.90
46438;DHT22;32137;48.728;9.142;2023-07-30T03:29:27;17.10;99.90
46438;DHT22;32137;48.728;9.142;2023-07-30T03:31:53;17.20;99.90
46438;DHT22;32137;48.728;9.142;2023-07-30T03:34:18;17.00;99.90
46438;DHT22;32137;48.728;9.142;2023-07-30T03:36:44;17.40;99.90
46438;DHT22;32137;48.728;9.142;2023-07-30T03:39:09;17.40;99.90
46438;DHT22;32137;48.728;9.142;2023-07-30T03:41:35;17.10;99.90
46438;DHT22;32137;48.728;9.142;2023-07-30T03:44:01;17.30;99.90
46438;DHT22;32137;48.728;9.142;2023-07-30T03:46:27;17.30;99.90
46438;DHT22;32137;48.728;9.142;2023-07-30T03:48:52;17.30;99.90
46438;DHT22;32137;48.728;9.142;2023-07-30T03:51:18;17.20;99.90
46438;DHT22;32137;48.728;9.142;2023-07-30T03:53:43;17.10;99.90
46438;DHT22;32137;48.728;9.142;2023-07-30T03:56:09;17.40;99.90
46438;DHT22;32137;48.728;9.142;2023-07-30T03:58:34;17.30;99.90
46438;DHT22;32137;48.728;9.142;2023-07-30T04:01:01;17.20;99.90
46438;DHT22;32137;48.728;9.142;2023-07-30T04:03:26;17.40;99.90
46438;DHT22;32137;48.728;9.142;2023-07-30T04:05:52;17.40;99.90
46438;DHT22;32137;48.728;9.142;2023-07-30T04:08:17;17.30;99.90
46438;DHT22;32137;48.728;9.142;2023-07-30T04:10:43;17.10;99.90
46438;DHT22;32137;48.728;9.142;2023-07-30T04:13:08;17.10;99.90
46438;DHT22;32137;48.728;9.142;2023-07-30T04:15:34;17.30;99.90
46438;DHT22;32137;48.728;9.142;2023-07-30T04:17:59;17.00;99.90
46438;DHT22;32137;48.728;9.142;2023-07-30T04:20:25;17.00;99.90
46438;DHT22;32137;48.728;9.142;2023-07-30T04:22:51;17.00;99.90
46438;DHT22;32137;48.728;9.142;2023-07-30T04:25:16;17.20;99.90
46438;DHT22;32137;48.728;9.142;2023-07-30T04:27:42;17.10;99.90
46438;DHT22;32137;48.728;9.142;2023-07-30T04:30:07;17.20;99.90
46438;DHT22;32137;48.728;9.142;2023-07-30T04:32:33;17.20;99.90
46438;DHT22;32137;48.728;9.142;2023-07-30T04:34:58;17.30;99.90
46438;DHT22;32137;48.728;9.142;2023-07-30T04:37:24;17.30;99.90
46438;DHT22;32137;48.728;9.142;2023-07-30T04:39:49;17.20;99.90
46438;DHT22;32137;48.728;9.142;2023-07-30T04:42:15;17.30;99.90
46438;DHT22;32137;48.728;9.142;2023-07-30T04:44:40;17.30;99.90
46438;DHT22;32137;48.728;9.142;2023-07-30T04:47:06;17.20;99.90
46438;DHT22;32137;48.728;9.142;2023-07-30T04:49:31;17.30;99.90
46438;DHT22;32137;48.728;9.142;2023-07-30T04:51:57;17.10;99.90
46438;DHT22;32137;48.728;9.142;2023-07-30T04:54:22;17.20;99.90
46438;DHT22;32137;48.728;9.142;2023-07-30T04:56:48;17.00;99.90
46438;DHT22;32137;48.728;9.142;2023-07-30T04:59:13;17.00;99.90
46438;DHT22;32137;48.728;9.142;2023-07-30T05:01:38;17.20;99.90
46438;DHT22;32137;48.728;9.142;2023-07-30T05:04:04;17.30;99.90
46438;DHT22;32137;48.728;9.142;2023-07-30T05:06:29;17.00;99.90
46438;DHT22;32137;48.728;9.142;2023-07-30T05:08:55;17.00;99.90
46438;DHT22;32137;48.728;9.142;2023-07-30T05:11:20;17.10;99.90
46438;DHT22;32137;48.728;9.142;2023-07-30T05:13:46;17.30;99.90
46438;DHT22;32137;48.728;9.142;2023-07-30T05:16:11;17.20;99.90
46438;DHT22;32137;48.728;9.142;2023-07-30T05:18:36;17.10;99.90
46438;DHT22;32137;48.728;9.142;2023-07-30T05:21:02;17.30;99.90
46438;DHT22;32137;48.728;9.142;2023-07-30T05:23:27;17.10;99.90
46438;DHT22;32137;48.728;9.142;2023-07-30T05:25:53;17.00;99.90
46438;DHT22;32137;48.728;9.142;2023-07-30T05:28:18;17.30;99.90
46438;DHT22;32137;48.728;9.142;2023-07-30T05:30:44;17.40;99.90
46438;DHT22;32137;48.728;9.142;2023-07-30T05:33:09;17.30;99.90
46438;DHT22;32137;48.728;9.142;2023-07-30T05:35:34;17.30;99.90
46438;DHT22;32137;48.728;9.142;2023-07-30T05:38:00;17.20;99.90
46438;DHT22;32137;48.728;9.142;2023-07-30T05:40:26;17.50;99.90
46438;DHT22;32137;48.728;9.142;2023-07-30T05:42:51;17.50;99.90
46438;DHT22;32137;48.728;9.142;2023-07-30T05:45:17;17.30;99.90
46438;DHT22;32137;48.728;9.142;2023-07-30T05:47:42;17.40;99.90
46438;DHT22;32137;48.728;9.142;2023-07-30T05:50:08;17.00;99.90
46438;DHT22;32137;48.728;9.142;2023-07-30T05:52:33;17.30;99.90
46438;DHT22;32137;48.728;9.142;2023-07-30T05:54:59;17.20;99.90
46438;DHT22;32137;48.728;9.142;2023-07-30T05:57:24;17.40;99.90
46438;DHT22;32137;48.728;9.142;2023-07-30T05:59:50;17.30;99.90
46438;DHT22;32137;48.728;9.142;2023-07-30T06:02:16;17.30;99.90
46438;DHT22;32137;48.728;9.142;2023-07-30T06:04:41;17.20;99.90
46438;DHT22;32137;48.728;9.142;2023-07-30T06:07:07;17.10;99.90
46438;DHT22;32137;48.728;9.142;2023-07-30T06:09:32;17.20;99.90
46438;DHT22;32137;48.728;9.142;2023-07-30T06:11:58;17.40;99.90
46438;DHT22;32137;48.728;9.142;2023-07-30T06:14:24;17.30;99.90
46438;DHT22;32137;48.728;9.142;2023-07-30T06:16:49;17.20;99.90
46438;DHT22;32137;48.728;9.142;2023-07-30T06:19:15;17.30;99.90
46438;DHT22;32137;48.728;9.142;2023-07-30T06:21:40;17.50;99.90
46438;DHT22;32137;48.728;9.142;2023-07-30T06:24:05;17.30;99.90
46438;DHT22;32137;48.728;9.142;2023-07-30T06:26:31;17.40;99.90
46438;DHT22;32137;48.728;9.142;2023-07-30T06:28:57;17.30;99.90
46438;DHT22;32137;48.728;9.142;2023-07-30T06:31:22;17.40;99.90
46438;DHT22;32137;48.728;9.142;2023-07-30T06:33:48;17.50;99.90
46438;DHT22;32137;48.728;9.142;2023-07-30T06:36:13;17.20;99.90
46438;DHT22;32137;48.728;9.142;2023-07-30T06:38:39;17.40;99.90
46438;DHT22;32137;48.728;9.142;2023-07-30T06:41:04;17.40;99.90
46438;DHT22;32137;48.728;9.142;2023-07-30T06:43:30;17.50;99.90
46438;DHT22;32137;48.728;9.142;2023-07-30T06:45:55;17.30;99.90
46438;DHT22;32137;48.728;9.142;2023-07-30T06:48:21;17.40;99.90
46438;DHT22;32137;48.728;9.142;2023-07-30T06:50:46;17.40;99.90
46438;DHT22;32137;48.728;9.142;2023-07-30T06:53:12;17.70;99.90
46438;DHT22;32137;48.728;9.142;2023-07-30T06:55:37;17.60;99.90
46438;DHT22;32137;48.728;9.142;2023-07-30T06:58:03;17.90;99.90
46438;DHT22;32137;48.728;9.142;2023-07-30T07:00:29;17.50;99.90
46438;DHT22;32137;48.728;9.142;2023-07-30T07:02:54;17.80;99.90
46438;DHT22;32137;48.728;9.142;2023-07-30T07:05:20;17.50;99.90
46438;DHT22;32137;48.728;9.142;2023-07-30T07:07:45;17.70;99.90
46438;DHT22;32137;48.728;9.142;2023-07-30T07:10:11;17.60;99.90
46438;DHT22;32137;48.728;9.142;2023-07-30T07:12:37;17.70;99.90
46438;DHT22;32137;48.728;9.142;2023-07-30T07:15:03;17.50;99.90
46438;DHT22;32137;48.728;9.142;2023-07-30T07:17:29;17.70;99.90
46438;DHT22;32137;48.728;9.142;2023-07-30T07:19:55;17.70;99.90
46438;DHT22;32137;48.728;9.142;2023-07-30T07:22:20;17.80;99.90
46438;DHT22;32137;48.728;9.142;2023-07-30T07:24:46;17.70;99.90
46438;DHT22;32137;48.728;9.142;2023-07-30T07:27:11;17.70;99.90
46438;DHT22;32137;48.728;9.142;2023-07-30T07:29:37;17.70;99.90
46438;DHT22;32137;48.728;9.142;2023-07-30T07:32:02;17.70;99.90
46438;DHT22;32137;48.728;9.142;2023-07-30T07:34:28;17.60;99.90
46438;DHT22;32137;48.728;9.142;2023-07-30T07:36:54;17.40;99.90
46438;DHT22;32137;48.728;9.142;2023-07-30T07:39:19;17.40;99.90
46438;DHT22;32137;48.728;9.142;2023-07-30T07:41:45;17.40;99.90
46438;DHT22;32137;48.728;9.142;2023-07-30T07:44:10;17.60;99.90
46438;DHT22;32137;48.728;9.142;2023-07-30T07:46:36;17.50;99.90
46438;DHT22;32137;48.728;9.142;2023-07-30T07:49:01;17.30;99.90
46438;DHT22;32137;48.728;9.142;2023-07-30T07:51:27;17.40;99.90
46438;DHT22;32137;48.728;9.142;2023-07-30T07:53:52;17.30;99.90
46438;DHT22;32137;48.728;9.142;2023-07-30T07:56:18;17.50;99.90
46438;DHT22;32137;48.728;9.142;2023-07-30T07:58:43;17.50;99.90
46438;DHT22;32137;48.728;9.142;2023-07-30T08:01:09;17.40;99.90
46438;DHT22;32137;48.728;9.142;2023-07-30T08:03:34;17.40;99.90
46438;DHT22;32137;48.728;9.142;2023-07-30T08:06:00;17.40;99.90
46438;DHT22;32137;48.728;9.142;2023-07-30T08:08:25;17.50;99.90
46438;DHT22;32137;48.728;9.142;2023-07-30T08:10:51;17.70;99.90
46438;DHT22;32137;48.728;9.142;2023-07-30T08:13:17;17.50;99.90
46438;DHT22;32137;48.728;9.142;2023-07-30T08:15:42;17.50;99.90
46438;DHT22;32137;48.728;9.142;2023-07-30T08:18:08;17.50;99.90
46438;DHT22;32137;48.728;9.142;2023-07-30T08:20:33;17.50;99.90
46438;DHT22;32137;48.728;9.142;2023-07-30T08:22:59;17.60;99.90
46438;DHT22;32137;48.728;9.142;2023-07-30T08:25:24;17.60;99.90
46438;DHT22;32137;48.728;9.142;2023-07-30T08:27:50;17.60;99.90
46438;DHT22;32137;48.728;9.142;2023-07-30T08:30:15;17.90;99.90
46438;DHT22;32137;48.728;9.142;2023-07-30T08:32:41;17.80;99.90
46438;DHT22;32137;48.728;9.142;2023-07-30T08:35:08;17.80;99.90
46438;DHT22;32137;48.728;9.142;2023-07-30T08:37:34;17.80;99.90
46438;DHT22;32137;48.728;9.142;2023-07-30T08:39:59;18.00;99.90
46438;DHT22;32137;48.728;9.142;2023-07-30T08:42:25;17.90;99.90
46438;DHT22;32137;48.728;9.142;2023-07-30T08:44:51;18.00;99.90
46438;DHT22;32137;48.728;9.142;2023-07-30T08:47:16;18.10;99.90
46438;DHT22;32137;48.728;9.142;2023-07-30T08:49:41;18.20;99.90
46438;DHT22;32137;48.728;9.142;2023-07-30T08:52:08;18.10;99.90
46438;DHT22;32137;48.728;9.142;2023-07-30T08:54:34;18.10;99.90
46438;DHT22;32137;48.728;9.142;2023-07-30T08:56:59;17.90;99.90
46438;DHT22;32137;48.728;9.142;2023-07-30T08:59:26;17.90;99.90
46438;DHT22;32137;48.728;9.142;2023-07-30T09:01:52;18.00;99.90
46438;DHT22;32137;48.728;9.142;2023-07-30T09:04:19;18.10;99.90
46438;DHT22;32137;48.728;9.142;2023-07-30T09:06:47;18.10;99.90
46438;DHT22;32137;48.728;9.142;2023-07-30T09:09:13;17.90;99.90
46438;DHT22;32137;48.728;9.142;2023-07-30T09:11:39;18.00;99.90
46438;DHT22;32137;48.728;9.142;2023-07-30T09:14:05;18.10;99.90
46438;DHT22;32137;48.728;9.142;2023-07-30T09:16:31;18.30;99.90
46438;DHT22;32137;48.728;9.142;2023-07-30T09:18:56;18.00;99.90
46438;DHT22;32137;48.728;9.142;2023-07-30T09:21:31;18.00;99.90
46438;DHT22;32137;48.728;9.142;2023-07-30T09:23:57;18.10;99.90
46438;DHT22;32137;48.728;9.142;2023-07-30T09:26:23;17.90;99.90
46438;DHT22;32137;48.728;9.142;2023-07-30T09:28:48;18.10;99.90
46438;DHT22;32137;48.728;9.142;2023-07-30T09:31:14;18.00;99.90
46438;DHT22;32137;48.728;9.142;2023-07-30T09:33:40;17.70;99.90
46438;DHT22;32137;48.728;9.142;2023-07-30T09:36:06;17.70;99.90
46438;DHT22;32137;48.728;9.142;2023-07-30T09:38:32;17.70;99.90
46438;DHT22;32137;48.728;9.142;2023-07-30T09:41:03;17.90;99.90
46438;DHT22;32137;48.728;9.142;2023-07-30T09:43:31;17.80;99.90
46438;DHT22;32137;48.728;9.142;2023-07-30T09:46:01;17.70;99.90
46438;DHT22;32137;48.728;9.142;2023-07-30T09:48:27;17.90;99.90
46438;DHT22;32137;48.728;9.142;2023-07-30T09:50:52;18.00;99.90
46438;DHT22;32137;48.728;9.142;2023-07-30T09:53:19;18.10;99.90
46438;DHT22;32137;48.728;9.142;2023-07-30T09:55:45;17.90;99.90
46438;DHT22;32137;48.728;9.142;2023-07-30T09:58:10;17.80;99.90
46438;DHT22;32137;48.728;9.142;2023-07-30T10:00:37;17.90;35.80
46438;DHT22;32137;48.728;9.142;2023-07-30T10:03:03;18.10;64.40
46438;DHT22;32137;48.728;9.142;2023-07-30T10:05:31;18.30;99.90
46438;DHT22;32137;48.728;9.142;2023-07-30T10:08:05;18.50;1.00
46438;DHT22;32137;48.728;9.142;2023-07-30T10:10:33;18.60;1.00
46438;DHT22;32137;48.728;9.142;2023-07-30T10:13:00;18.70;99.90
46438;DHT22;32137;48.728;9.142;2023-07-30T10:15:28;18.60;99.90
46438;DHT22;32137;48.728;9.142;2023-07-30T10:17:55;18.50;39.00
46438;DHT22;32137;48.728;9.142;2023-07-30T10:20:21;18.50;99.90
46438;DHT22;32137;48.728;9.142;2023-07-30T10:22:50;18.50;28.30
46438;DHT22;32137;48.728;9.142;2023-07-30T10:25:16;18.50;50.60
46438;DHT22;32137;48.728;9.142;2023-07-30T10:27:41;18.70;85.30
46438;DHT22;32137;48.728;9.142;2023-07-30T10:30:15;18.80;50.10
46438;DHT22;32137;48.728;9.142;2023-07-30T10:32:42;18.70;1.00
46438;DHT22;32137;48.728;9.142;2023-07-30T10:35:08;18.60;1.00
46438;DHT22;32137;48.728;9.142;2023-07-30T10:37:34;18.60;1.00
46438;DHT22;32137;48.728;9.142;2023-07-30T10:39:59;18.60;1.00
46438;DHT22;32137;48.728;9.142;2023-07-30T10:42:32;18.60;99.90
46438;DHT22;32137;48.728;9.142;2023-07-30T10:44:58;18.80;1.00
46438;DHT22;32137;48.728;9.142;2023-07-30T10:47:24;18.70;99.90
46438;DHT22;32137;48.728;9.142;2023-07-30T10:49:51;18.50;99.90
46438;DHT22;32137;48.728;9.142;2023-07-30T10:52:19;18.60;99.90
46438;DHT22;32137;48.728;9.142;2023-07-30T10:54:49;18.70;99.90
46438;DHT22;32137;48.728;9.142;2023-07-30T10:57:14;18.80;99.90
46438;DHT22;32137;48.728;9.142;2023-07-30T10:59:40;19.00;5.30
46438;DHT22;32137;48.728;9.142;2023-07-30T11:02:06;19.10;99.90
46438;DHT22;32137;48.728;9.142;2023-07-30T11:04:34;19.30;99.90
46438;DHT22;32137;48.728;9.142;2023-07-30T11:07:00;19.50;99.90
46438;DHT22;32137;48.728;9.142;2023-07-30T11:09:26;19.60;99.90
46438;DHT22;32137;48.728;9.142;2023-07-30T11:11:52;19.80;6.40
46438;DHT22;32137;48.728;9.142;2023-07-30T11:14:18;19.90;2.00
46438;DHT22;32137;48.728;9.142;2023-07-30T11:16:52;20.10;1.00
46438;DHT22;32137;48.728;9.142;2023-07-30T11:19:18;20.20;1.00
46438;DHT22;32137;48.728;9.142;2023-07-30T11:21:44;20.30;2.50
46438;DHT22;32137;48.728;9.142;2023-07-30T11:24:09;20.30;1.00
46438;DHT22;32137;48.728;9.142;2023-07-30T11:26:35;20.40;1.00
46438;DHT22;32137;48.728;9.142;2023-07-30T11:29:00;20.40;1.00
46438;DHT22;32137;48.728;9.142;2023-07-30T11:31:25;20.30;1.00
46438;DHT22;32137;48.728;9.142;2023-07-30T11:33:52;20.40;1.00
46438;DHT22;32137;48.728;9.142;2023-07-30T11:36:18;20.60;27.30
46438;DHT22;32137;48.728;9.142;2023-07-30T11:38:45;20.60;1.00
46438;DHT22;32137;48.728;9.142;2023-07-30T11:41:10;20.70;1.00
46438;DHT22;32137;48.728;9.142;2023-07-30T11:43:40;20.60;1.00
46438;DHT22;32137;48.728;9.142;2023-07-30T11:46:13;20.50;1.00
46438;DHT22;32137;48.728;9.142;2023-07-30T11:48:40;20.40;1.00
46438;DHT22;32137;48.728;9.142;2023-07-30T11:51:05;20.20;1.00
46438;DHT22;32137;48.728;9.142;2023-07-30T11:53:51;20.20;1.00
46438;DHT22;32137;48.728;9.142;2023-07-30T11:56:17;20.10;1.00
46438;DHT22;32137;48.728;9.142;2023-07-30T11:58:43;20.10;1.00
46438;DHT22;32137;48.728;9.142;2023-07-30T12:01:09;20.10;1.00
46438;DHT22;32137;48.728;9.142;2023-07-30T12:03:35;20.20;1.00
46438;DHT22;32137;48.728;9.142;2023-07-30T12:06:04;20.20;1.00
46438;DHT22;32137;48.728;9.142;2023-07-30T12:08:29;20.30;1.00
46438;DHT22;32137;48.728;9.142;2023-07-30T12:10:55;20.20;1.00
46438;DHT22;32137;48.728;9.142;2023-07-30T12:13:22;20.90;99.90
46438;DHT22;32137;48.728;9.142;2023-07-30T12:15:51;22.90;99.90
46438;DHT22;32137;48.728;9.142;2023-07-30T12:18:17;24.90;1.00
46438;DHT22;32137;48.728;9.142;2023-07-30T12:20:42;26.60;99.90
46438;DHT22;32137;48.728;9.142;2023-07-30T12:23:07;25.70;99.90
46438;DHT22;32137;48.728;9.142;2023-07-30T12:25:33;26.30;99.90
46438;DHT22;32137;48.728;9.142;2023-07-30T12:27:58;28.00;99.90
46438;DHT22;32137;48.728;9.142;2023-07-30T12:30:24;26.60;99.90
46438;DHT22;32137;48.728;9.142;2023-07-30T12:32:51;25.30;99.90
46438;DHT22;32137;48.728;9.142;2023-07-30T12:35:17;24.20;99.90
46438;DHT22;32137;48.728;9.142;2023-07-30T12:37:42;23.50;1.00
46438;DHT22;32137;48.728;9.142;2023-07-30T12:40:08;23.00;1.00
46438;DHT22;32137;48.728;9.142;2023-07-30T12:42:33;23.20;1.00
46438;DHT22;32137;48.728;9.142;2023-07-30T12:44:59;23.10;99.90
46438;DHT22;32137;48.728;9.142;2023-07-30T12:47:24;23.10;99.90
46438;DHT22;32137;48.728;9.142;2023-07-30T12:49:50;23.00;1.00
46438;DHT22;32137;48.728;9.142;2023-07-30T12:52:15;22.70;99.90
46438;DHT22;32137;48.728;9.142;2023-07-30T12:54:40;22.40;1.00
46438;DHT22;32137;48.728;9.142;2023-07-30T12:57:06;22.20;1.00
46438;DHT22;32137;48.728;9.142;2023-07-30T12:59:31;21.80;1.00
46438;DHT22;32137;48.728;9.142;2023-07-30T13:01:57;21.60;1.00
46438;DHT22;32137;48.728;9.142;2023-07-30T13:04:23;21.40;1.00
46438;DHT22;32137;48.728;9.142;2023-07-30T13:06:49;21.90;1.00
46438;DHT22;32137;48.728;9.142;2023-07-30T13:09:14;23.10;99.90
46438;DHT22;32137;48.728;9.142;2023-07-30T13:11:40;23.50;99.90
46438;DHT22;32137;48.728;9.142;2023-07-30T13:14:05;23.80;99.90
46438;DHT22;32137;48.728;9.142;2023-07-30T13:16:31;24.40;99.90
46438;DHT22;32137;48.728;9.142;2023-07-30T13:18:57;24.20;99.90
46438;DHT22;32137;48.728;9.142;2023-07-30T13:21:22;23.90;99.90
46438;DHT22;32137;48.728;9.142;2023-07-30T13:23:48;24.10;99.90
46438;DHT22;32137;48.728;9.142;2023-07-30T13:26:13;23.60;99.90
46438;DHT22;32137;48.728;9.142;2023-07-30T13:28:39;23.20;99.90
46438;DHT22;32137;48.728;9.142;2023-07-30T13:31:04;22.70;1.00
46438;DHT22;32137;48.728;9.142;2023-07-30T13:33:30;22.40;1.00
46438;DHT22;32137;48.728;9.142;2023-07-30T13:35:55;22.10;1.00
46438;DHT22;32137;48.728;9.142;2023-07-30T13:38:21;23.00;99.90
46438;DHT22;32137;48.728;9.142;2023-07-30T13:40:47;23.30;99.90
46438;DHT22;32137;48.728;9.142;2023-07-30T13:43:12;23.00;99.90
46438;DHT22;32137;48.728;9.142;2023-07-30T13:45:38;25.80;99.90
46438;DHT22;32137;48.728;9.142;2023-07-30T13:48:04;26.50;31.80
46438;DHT22;32137;48.728;9.142;2023-07-30T13:50:29;25.40;99.90
46438;DHT22;32137;48.728;9.142;2023-07-30T13:52:55;26.10;16.20
46438;DHT22;32137;48.728;9.142;2023-07-30T13:55:20;26.30;1.00
46438;DHT22;32137;48.728;9.142;2023-07-30T13:57:46;27.30;1.00
46438;DHT22;32137;48.728;9.142;2023-07-30T14:00:11;28.10;1.00
46438;DHT22;32137;48.728;9.142;2023-07-30T14:02:37;28.70;1.00
46438;DHT22;32137;48.728;9.142;2023-07-30T14:05:03;28.70;1.00
46438;DHT22;32137;48.728;9.142;2023-07-30T14:07:28;28.30;1.00
46438;DHT22;32137;48.728;9.142;2023-07-30T14:09:53;27.60;1.00
46438;DHT22;32137;48.728;9.142;2023-07-30T14:12:19;26.80;1.00
46438;DHT22;32137;48.728;9.142;2023-07-30T14:14:44;26.00;1.00
46438;DHT22;32137;48.728;9.142;2023-07-30T14:17:10;25.70;1.50
46438;DHT22;32137;48.728;9.142;2023-07-30T14:19:35;25.50;1.00
46438;DHT22;32137;48.728;9.142;2023-07-30T14:22:02;25.50;24.20
46438;DHT22;32137;48.728;9.142;2023-07-30T14:24:28;25.60;12.60
46438;DHT22;32137;48.728;9.142;2023-07-30T14:26:53;25.50;47.10
46438;DHT22;32137;48.728;9.142;2023-07-30T14:29:19;25.20;35.20
46438;DHT22;32137;48.728;9.142;2023-07-30T14:31:44;25.10;60.00
46438;DHT22;32137;48.728;9.142;2023-07-30T14:34:10;25.10;1.00
46438;DHT22;32137;48.728;9.142;2023-07-30T14:36:35;25.10;1.00
46438;DHT22;32137;48.728;9.142;2023-07-30T14:39:01;25.10;1.00
46438;DHT22;32137;48.728;9.142;2023-07-30T14:41:26;25.10;1.00
46438;DHT22;32137;48.728;9.142;2023-07-30T14:43:51;25.00;1.00
46438;DHT22;32137;48.728;9.142;2023-07-30T14:46:17;25.20;1.00
46438;DHT22;32137;48.728;9.142;2023-07-30T14:48:42;25.20;1.00
46438;DHT22;32137;48.728;9.142;2023-07-30T14:51:08;25.20;1.00
46438;DHT22;32137;48.728;9.142;2023-07-30T14:53:34;25.10;1.00
46438;DHT22;32137;48.728;9.142;2023-07-30T14:55:59;25.10;1.00
46438;DHT22;32137;48.728;9.142;2023-07-30T14:58:25;25.10;1.00
46438;DHT22;32137;48.728;9.142;2023-07-30T15:00:50;25.00;1.00
46438;DHT22;32137;48.728;9.142;2023-07-30T15:03:16;25.00;1.00
46438;DHT22;32137;48.728;9.142;2023-07-30T15:05:42;25.00;1.00
46438;DHT22;32137;48.728;9.142;2023-07-30T15:08:07;25.00;1.00
46438;DHT22;32137;48.728;9.142;2023-07-30T15:10:33;25.10;1.00
46438;DHT22;32137;48.728;9.142;2023-07-30T15:12:58;25.10;1.00
46438;DHT22;32137;48.728;9.142;2023-07-30T15:15:23;25.00;1.00
46438;DHT22;32137;48.728;9.142;2023-07-30T15:17:49;25.00;1.00
46438;DHT22;32137;48.728;9.142;2023-07-30T15:20:14;25.00;1.00
46438;DHT22;32137;48.728;9.142;2023-07-30T15:22:40;25.00;1.00
46438;DHT22;32137;48.728;9.142;2023-07-30T15:25:05;25.00;1.00